Oak Creek, Nebraska
Current Conditions -  °F | °C
As of 5:53 AM on Monday 26 Jan 2015 (Local Time) from KODX Reporting Station
Clear Clear  
Wind Chill: 26°   Ceiling: Unl
Heat Index: 26°   Visibility: 10mi
Dew Point: 23°   Wind: 3mph
Humidity: 88%   Direction: 310°NW
Pressure: 29.91"   Gusts: NA
Location:  41.3026°N, 99.0141°W
Report Text: KODX 261153Z AUTO 31003KT 10SM CLR M03/M05 A2991 RMK AO2 SLP151 T10331050 10017 21050 56011 $
Loading
Personal Weather Stations






























Interactive Weather Map New forecast layout! Learn more

10-Day Weather Forecast

Advertisements
Track Severe Weather on mobile